sensor_id;sensor_type;location;lat;lon;timestamp;pressure;altitude;pressure_sealevel;temperature;humidity
47556;BME280;33291;46.222;26.460;2023-05-09T00:01:44;97368.91;;;4.69;100.00
47556;BME280;33291;46.222;26.460;2023-05-09T00:04:10;97374.59;;;4.75;100.00
47556;BME280;33291;46.222;26.460;2023-05-09T00:06:36;97374.59;;;4.75;100.00
47556;BME280;33291;46.222;26.460;2023-05-09T00:09:02;97372.91;;;4.74;100.00
47556;BME280;33291;46.222;26.460;2023-05-09T00:11:29;97365.25;;;4.73;100.00
47556;BME280;33291;46.222;26.460;2023-05-09T00:13:55;97367.00;;;4.72;100.00
47556;BME280;33291;46.222;26.460;2023-05-09T00:16:20;97342.69;;;4.60;100.00
47556;BME280;33291;46.222;26.460;2023-05-09T00:18:48;97363.50;;;4.73;100.00
47556;BME280;33291;46.222;26.460;2023-05-09T00:21:15;97356.09;;;4.67;100.00
47556;BME280;33291;46.222;26.460;2023-05-09T00:23:40;97356.25;;;4.64;100.00
47556;BME280;33291;46.222;26.460;2023-05-09T00:26:06;97363.66;;;4.70;100.00
47556;BME280;33291;46.222;26.460;2023-05-09T00:28:31;97358.59;;;4.69;100.00
47556;BME280;33291;46.222;26.460;2023-05-09T00:30:57;97360.00;;;4.74;100.00
47556;BME280;33291;46.222;26.460;2023-05-09T00:33:23;97323.09;;;4.56;100.00
47556;BME280;33291;46.222;26.460;2023-05-09T00:35:52;97355.91;;;4.70;100.00
47556;BME280;33291;46.222;26.460;2023-05-09T00:38:18;97356.00;;;4.69;100.00
47556;BME280;33291;46.222;26.460;2023-05-09T00:40:43;97351.63;;;4.71;100.00
47556;BME280;33291;46.222;26.460;2023-05-09T00:43:09;97352.44;;;4.71;100.00
47556;BME280;33291;46.222;26.460;2023-05-09T00:45:34;97343.00;;;4.70;100.00
47556;BME280;33291;46.222;26.460;2023-05-09T00:47:59;97350.03;;;4.68;100.00
47556;BME280;33291;46.222;26.460;2023-05-09T00:50:25;97340.75;;;4.64;100.00
47556;BME280;33291;46.222;26.460;2023-05-09T00:52:50;97348.25;;;4.69;100.00
47556;BME280;33291;46.222;26.460;2023-05-09T00:55:17;97355.19;;;4.68;100.00
47556;BME280;33291;46.222;26.460;2023-05-09T00:57:43;97343.34;;;4.64;100.00
47556;BME280;33291;46.222;26.460;2023-05-09T01:00:09;97327.59;;;4.53;100.00
47556;BME280;33291;46.222;26.460;2023-05-09T01:02:42;97354.13;;;4.72;100.00
47556;BME280;33291;46.222;26.460;2023-05-09T01:05:09;97356.78;;;4.71;100.00
47556;BME280;33291;46.222;26.460;2023-05-09T01:13:14;97358.34;;;4.73;100.00
47556;BME280;33291;46.222;26.460;2023-05-09T01:16:07;97353.94;;;4.75;100.00
47556;BME280;33291;46.222;26.460;2023-05-09T01:19:26;97342.69;;;4.76;100.00
47556;BME280;33291;46.222;26.460;2023-05-09T01:21:48;97346.78;;;4.80;100.00
47556;BME280;33291;46.222;26.460;2023-05-09T01:24:45;97335.56;;;4.82;100.00
47556;BME280;33291;46.222;26.460;2023-05-09T01:29:59;97342.34;;;4.83;100.00
47556;BME280;33291;46.222;26.460;2023-05-09T01:32:27;97344.78;;;4.86;100.00
47556;BME280;33291;46.222;26.460;2023-05-09T01:34:55;97347.34;;;4.86;100.00
47556;BME280;33291;46.222;26.460;2023-05-09T01:37:30;97355.94;;;4.86;100.00
47556;BME280;33291;46.222;26.460;2023-05-09T01:39:59;97346.44;;;4.87;100.00
47556;BME280;33291;46.222;26.460;2023-05-09T01:42:38;97340.63;;;4.83;100.00
47556;BME280;33291;46.222;26.460;2023-05-09T01:45:06;97349.13;;;4.85;100.00
47556;BME280;33291;46.222;26.460;2023-05-09T01:47:33;97338.13;;;4.82;100.00
47556;BME280;33291;46.222;26.460;2023-05-09T01:50:00;97343.22;;;4.83;100.00
47556;BME280;33291;46.222;26.460;2023-05-09T01:52:27;97345.53;;;4.88;100.00
47556;BME280;33291;46.222;26.460;2023-05-09T01:54:54;97318.16;;;4.69;100.00
47556;BME280;33291;46.222;26.460;2023-05-09T01:57:20;97320.31;;;4.77;100.00
47556;BME280;33291;46.222;26.460;2023-05-09T01:59:46;97340.22;;;4.91;100.00
47556;BME280;33291;46.222;26.460;2023-05-09T02:02:13;97338.53;;;4.90;100.00
47556;BME280;33291;46.222;26.460;2023-05-09T02:04:40;97317.72;;;4.77;100.00
47556;BME280;33291;46.222;26.460;2023-05-09T02:07:08;97341.84;;;4.92;100.00
47556;BME280;33291;46.222;26.460;2023-05-09T02:09:35;97342.03;;;4.89;100.00
47556;BME280;33291;46.222;26.460;2023-05-09T02:12:01;97337.63;;;4.91;100.00
47556;BME280;33291;46.222;26.460;2023-05-09T02:14:28;97340.47;;;4.86;100.00
47556;BME280;33291;46.222;26.460;2023-05-09T02:16:54;97336.44;;;4.80;100.00
47556;BME280;33291;46.222;26.460;2023-05-09T02:19:19;97332.59;;;4.72;100.00
47556;BME280;33291;46.222;26.460;2023-05-09T02:21:45;97340.88;;;4.78;100.00
47556;BME280;33291;46.222;26.460;2023-05-09T02:24:10;97335.88;;;4.75;100.00
47556;BME280;33291;46.222;26.460;2023-05-09T02:26:37;97341.63;;;4.80;100.00
47556;BME280;33291;46.222;26.460;2023-05-09T02:29:04;97347.59;;;4.81;100.00
47556;BME280;33291;46.222;26.460;2023-05-09T02:31:32;97337.28;;;4.81;100.00
47556;BME280;33291;46.222;26.460;2023-05-09T02:34:01;97352.69;;;4.83;100.00
47556;BME280;33291;46.222;26.460;2023-05-09T02:36:27;97344.13;;;4.82;100.00
47556;BME280;33291;46.222;26.460;2023-05-09T02:38:53;97331.22;;;4.82;100.00
47556;BME280;33291;46.222;26.460;2023-05-09T02:41:18;97315.41;;;4.72;100.00
47556;BME280;33291;46.222;26.460;2023-05-09T02:43:44;97339.28;;;4.92;100.00
47556;BME280;33291;46.222;26.460;2023-05-09T02:46:10;97332.81;;;4.85;100.00
47556;BME280;33291;46.222;26.460;2023-05-09T02:48:36;97330.97;;;4.87;100.00
47556;BME280;33291;46.222;26.460;2023-05-09T02:51:01;97332.47;;;4.91;100.00
47556;BME280;33291;46.222;26.460;2023-05-09T02:53:27;97332.31;;;4.94;100.00
47556;BME280;33291;46.222;26.460;2023-05-09T02:55:53;97319.81;;;4.86;100.00
47556;BME280;33291;46.222;26.460;2023-05-09T02:58:19;97340.03;;;4.94;100.00
47556;BME280;33291;46.222;26.460;2023-05-09T03:00:44;97335.06;;;4.91;100.00
47556;BME280;33291;46.222;26.460;2023-05-09T03:03:10;97347.63;;;4.97;100.00
47556;BME280;33291;46.222;26.460;2023-05-09T03:05:36;97339.09;;;4.95;100.00
47556;BME280;33291;46.222;26.460;2023-05-09T03:08:02;97340.13;;;4.92;100.00
47556;BME280;33291;46.222;26.460;2023-05-09T03:10:27;97344.78;;;5.02;100.00
47556;BME280;33291;46.222;26.460;2023-05-09T03:12:53;97337.22;;;4.98;100.00
47556;BME280;33291;46.222;26.460;2023-05-09T03:15:18;97350.63;;;5.05;100.00
47556;BME280;33291;46.222;26.460;2023-05-09T03:17:45;97345.44;;;5.05;100.00
47556;BME280;33291;46.222;26.460;2023-05-09T03:20:10;97349.78;;;5.05;100.00
47556;BME280;33291;46.222;26.460;2023-05-09T03:22:36;97353.09;;;5.07;100.00
47556;BME280;33291;46.222;26.460;2023-05-09T03:25:02;97346.38;;;5.04;100.00
47556;BME280;33291;46.222;26.460;2023-05-09T03:27:28;97351.28;;;5.09;100.00
47556;BME280;33291;46.222;26.460;2023-05-09T03:29:53;97329.47;;;4.98;100.00
47556;BME280;33291;46.222;26.460;2023-05-09T03:32:19;97322.13;;;4.91;100.00
47556;BME280;33291;46.222;26.460;2023-05-09T03:34:44;97352.03;;;5.11;100.00
47556;BME280;33291;46.222;26.460;2023-05-09T03:37:10;97349.44;;;5.11;100.00
47556;BME280;33291;46.222;26.460;2023-05-09T03:39:35;97350.28;;;5.11;100.00
47556;BME280;33291;46.222;26.460;2023-05-09T03:42:01;97363.78;;;5.16;100.00
47556;BME280;33291;46.222;26.460;2023-05-09T03:44:26;97362.03;;;5.17;100.00
47556;BME280;33291;46.222;26.460;2023-05-09T03:46:52;97363.78;;;5.16;100.00
47556;BME280;33291;46.222;26.460;2023-05-09T03:49:17;97346.88;;;5.11;100.00
47556;BME280;33291;46.222;26.460;2023-05-09T03:51:43;97344.53;;;5.06;100.00
47556;BME280;33291;46.222;26.460;2023-05-09T03:54:08;97357.84;;;5.14;100.00
47556;BME280;33291;46.222;26.460;2023-05-09T03:56:34;97354.44;;;5.14;100.00
47556;BME280;33291;46.222;26.460;2023-05-09T03:59:00;97366.38;;;5.16;100.00
47556;BME280;33291;46.222;26.460;2023-05-09T04:01:25;97365.25;;;5.21;100.00
47556;BME280;33291;46.222;26.460;2023-05-09T04:03:51;97361.03;;;5.20;100.00
47556;BME280;33291;46.222;26.460;2023-05-09T04:06:17;97372.84;;;5.24;100.00
47556;BME280;33291;46.222;26.460;2023-05-09T04:08:43;97350.09;;;5.14;100.00
47556;BME280;33291;46.222;26.460;2023-05-09T04:11:09;97371.75;;;5.28;100.00
47556;BME280;33291;46.222;26.460;2023-05-09T04:13:35;97385.38;;;5.31;100.00
47556;BME280;33291;46.222;26.460;2023-05-09T04:16:00;97369.94;;;5.30;100.00
47556;BME280;33291;46.222;26.460;2023-05-09T04:18:26;97371.59;;;5.31;100.00
47556;BME280;33291;46.222;26.460;2023-05-09T04:20:52;97381.03;;;5.32;100.00
47556;BME280;33291;46.222;26.460;2023-05-09T04:23:17;97385.94;;;5.37;100.00
47556;BME280;33291;46.222;26.460;2023-05-09T04:25:43;97374.94;;;5.33;100.00
47556;BME280;33291;46.222;26.460;2023-05-09T04:28:09;97378.28;;;5.35;100.00
47556;BME280;33291;46.222;26.460;2023-05-09T04:30:34;97379.94;;;5.36;100.00
47556;BME280;33291;46.222;26.460;2023-05-09T04:33:00;97376.41;;;5.37;100.00
47556;BME280;33291;46.222;26.460;2023-05-09T04:35:26;97375.78;;;5.33;100.00
47556;BME280;33291;46.222;26.460;2023-05-09T04:37:51;97376.75;;;5.31;100.00
47556;BME280;33291;46.222;26.460;2023-05-09T04:40:17;97379.94;;;5.36;100.00
47556;BME280;33291;46.222;26.460;2023-05-09T04:42:42;97386.75;;;5.37;100.00
47556;BME280;33291;46.222;26.460;2023-05-09T04:45:08;97386.75;;;5.37;100.00
47556;BME280;33291;46.222;26.460;2023-05-09T04:47:35;97388.44;;;5.38;100.00
47556;BME280;33291;46.222;26.460;2023-05-09T04:50:01;97377.44;;;5.34;100.00
47556;BME280;33291;46.222;26.460;2023-05-09T04:52:27;97393.44;;;5.41;100.00
47556;BME280;33291;46.222;26.460;2023-05-09T04:54:52;97392.59;;;5.41;100.00
47556;BME280;33291;46.222;26.460;2023-05-09T04:57:17;97379.94;;;5.36;100.00
47556;BME280;33291;46.222;26.460;2023-05-09T04:59:43;97377.44;;;5.34;100.00
47556;BME280;33291;46.222;26.460;2023-05-09T05:02:08;97403.25;;;5.50;100.00
47556;BME280;33291;46.222;26.460;2023-05-09T05:04:34;97403.09;;;5.54;100.00
47556;BME280;33291;46.222;26.460;2023-05-09T05:07:00;97361.25;;;5.31;100.00
47556;BME280;33291;46.222;26.460;2023-05-09T05:09:25;97385.59;;;5.43;100.00
47556;BME280;33291;46.222;26.460;2023-05-09T05:11:51;97405.59;;;5.55;100.00
47556;BME280;33291;46.222;26.460;2023-05-09T05:14:16;97406.25;;;5.59;100.00
47556;BME280;33291;46.222;26.460;2023-05-09T05:16:42;97406.41;;;5.56;100.00
47556;BME280;33291;46.222;26.460;2023-05-09T05:19:07;97399.59;;;5.55;100.00
47556;BME280;33291;46.222;26.460;2023-05-09T05:21:33;97402.81;;;5.58;100.00
47556;BME280;33291;46.222;26.460;2023-05-09T05:23:58;97399.41;;;5.58;100.00
47556;BME280;33291;46.222;26.460;2023-05-09T05:26:23;97406.25;;;5.59;100.00
47556;BME280;33291;46.222;26.460;2023-05-09T05:28:49;97391.25;;;5.49;100.00
47556;BME280;33291;46.222;26.460;2023-05-09T05:31:19;97393.34;;;5.59;100.00
47556;BME280;33291;46.222;26.460;2023-05-09T05:33:45;97406.66;;;5.67;100.00
47556;BME280;33291;46.222;26.460;2023-05-09T05:36:10;97389.09;;;5.58;100.00
47556;BME280;33291;46.222;26.460;2023-05-09T05:38:36;97403.00;;;5.71;100.00
47556;BME280;33291;46.222;26.460;2023-05-09T05:41:01;97407.13;;;5.74;100.00
47556;BME280;33291;46.222;26.460;2023-05-09T05:43:27;97403.72;;;5.73;100.00
47556;BME280;33291;46.222;26.460;2023-05-09T05:45:52;97403.25;;;5.66;100.00
47556;BME280;33291;46.222;26.460;2023-05-09T05:48:18;97381.25;;;5.59;100.00
47556;BME280;33291;46.222;26.460;2023-05-09T05:50:43;97405.56;;;5.71;100.00
47556;BME280;33291;46.222;26.460;2023-05-09T05:53:09;97408.06;;;5.73;100.00
47556;BME280;33291;46.222;26.460;2023-05-09T05:55:34;97411.56;;;5.72;100.00
47556;BME280;33291;46.222;26.460;2023-05-09T05:58:00;97389.72;;;5.61;100.00
47556;BME280;33291;46.222;26.460;2023-05-09T06:00:25;97413.91;;;5.76;100.00
47556;BME280;33291;46.222;26.460;2023-05-09T06:02:51;97400.97;;;5.76;100.00
47556;BME280;33291;46.222;26.460;2023-05-09T06:05:16;97410.41;;;5.77;100.00
47556;BME280;33291;46.222;26.460;2023-05-09T06:07:42;97406.13;;;5.76;100.00
47556;BME280;33291;46.222;26.460;2023-05-09T06:10:08;97409.28;;;5.81;100.00
47556;BME280;33291;46.222;26.460;2023-05-09T06:12:34;97409.09;;;5.84;100.00
47556;BME280;33291;46.222;26.460;2023-05-09T06:15:00;97426.88;;;5.91;100.00
47556;BME280;33291;46.222;26.460;2023-05-09T06:17:25;97413.09;;;5.90;100.00
47556;BME280;33291;46.222;26.460;2023-05-09T06:19:51;97424.72;;;5.99;100.00
47556;BME280;33291;46.222;26.460;2023-05-09T06:22:16;97430.63;;;6.01;100.00
47556;BME280;33291;46.222;26.460;2023-05-09T06:24:42;97428.91;;;6.01;100.00
47556;BME280;33291;46.222;26.460;2023-05-09T06:27:07;97429.91;;;5.99;100.00
47556;BME280;33291;46.222;26.460;2023-05-09T06:29:33;97439.97;;;6.03;100.00
47556;BME280;33291;46.222;26.460;2023-05-09T06:31:58;97433.22;;;6.01;100.00
47556;BME280;33291;46.222;26.460;2023-05-09T06:34:24;97440.63;;;6.07;100.00
47556;BME280;33291;46.222;26.460;2023-05-09T06:36:49;97419.69;;;5.96;100.00
47556;BME280;33291;46.222;26.460;2023-05-09T06:39:15;97420.00;;;6.05;100.00
47556;BME280;33291;46.222;26.460;2023-05-09T06:41:40;97427.50;;;6.10;100.00
47556;BME280;33291;46.222;26.460;2023-05-09T06:44:06;97436.13;;;6.11;100.00
47556;BME280;33291;46.222;26.460;2023-05-09T06:46:31;97435.19;;;6.12;100.00
47556;BME280;33291;46.222;26.460;2023-05-09T06:48:57;97428.53;;;6.08;100.00
47556;BME280;33291;46.222;26.460;2023-05-09T06:51:22;97424.19;;;6.08;100.00
47556;BME280;33291;46.222;26.460;2023-05-09T06:53:48;97436.78;;;6.14;100.00
47556;BME280;33291;46.222;26.460;2023-05-09T06:56:13;97432.31;;;6.16;100.00
47556;BME280;33291;46.222;26.460;2023-05-09T06:58:39;97424.56;;;6.16;100.00
47556;BME280;33291;46.222;26.460;2023-05-09T07:01:04;97425.97;;;6.22;100.00
47556;BME280;33291;46.222;26.460;2023-05-09T07:03:30;97402.59;;;6.09;100.00
47556;BME280;33291;46.222;26.460;2023-05-09T07:05:55;97414.81;;;6.21;100.00
47556;BME280;33291;46.222;26.460;2023-05-09T07:08:23;97419.81;;;6.25;100.00
47556;BME280;33291;46.222;26.460;2023-05-09T07:10:49;97416.31;;;6.26;100.00
47556;BME280;33291;46.222;26.460;2023-05-09T07:13:15;97428.78;;;6.33;100.00
47556;BME280;33291;46.222;26.460;2023-05-09T07:15:40;97400.19;;;6.20;100.00
47556;BME280;33291;46.222;26.460;2023-05-09T07:18:06;97423.34;;;6.38;100.00
47556;BME280;33291;46.222;26.460;2023-05-09T07:20:31;97426.47;;;6.43;100.00
47556;BME280;33291;46.222;26.460;2023-05-09T07:22:56;97410.41;;;6.38;100.00
47556;BME280;33291;46.222;26.460;2023-05-09T07:25:22;97423.91;;;6.43;100.00
47556;BME280;33291;46.222;26.460;2023-05-09T07:27:48;97419.44;;;6.45;100.00
47556;BME280;33291;46.222;26.460;2023-05-09T07:30:13;97422.03;;;6.45;100.00
47556;BME280;33291;46.222;26.460;2023-05-09T07:32:39;97385.25;;;6.26;100.00
47556;BME280;33291;46.222;26.460;2023-05-09T07:35:05;97424.53;;;6.47;100.00
47556;BME280;33291;46.222;26.460;2023-05-09T07:37:30;97415.69;;;6.51;100.00
47556;BME280;33291;46.222;26.460;2023-05-09T07:39:56;97419.75;;;6.55;100.00
47556;BME280;33291;46.222;26.460;2023-05-09T07:42:21;97424.66;;;6.60;100.00
47556;BME280;33291;46.222;26.460;2023-05-09T07:44:47;97421.16;;;6.61;100.00
47556;BME280;33291;46.222;26.460;2023-05-09T07:47:12;97426.16;;;6.64;100.00
47556;BME280;33291;46.222;26.460;2023-05-09T07:49:38;97423.28;;;6.68;100.00
47556;BME280;33291;46.222;26.460;2023-05-09T07:52:04;97416.34;;;6.69;100.00
47556;BME280;33291;46.222;26.460;2023-05-09T07:54:30;97411.69;;;6.74;100.00
47556;BME280;33291;46.222;26.460;2023-05-09T07:56:55;97419.94;;;6.81;100.00
47556;BME280;33291;46.222;26.460;2023-05-09T07:59:21;97419.00;;;6.82;99.54
47556;BME280;33291;46.222;26.460;2023-05-09T08:01:46;97412.81;;;6.84;96.74
47556;BME280;33291;46.222;26.460;2023-05-09T08:04:12;97411.00;;;6.86;95.77
47556;BME280;33291;46.222;26.460;2023-05-09T08:06:38;97413.31;;;6.91;92.68
47556;BME280;33291;46.222;26.460;2023-05-09T08:09:03;97404.13;;;6.85;89.89
47556;BME280;33291;46.222;26.460;2023-05-09T08:11:31;97416.72;;;6.91;90.62
47556;BME280;33291;46.222;26.460;2023-05-09T08:13:57;97408.41;;;6.86;89.73
47556;BME280;33291;46.222;26.460;2023-05-09T08:16:22;97415.78;;;6.92;90.57
47556;BME280;33291;46.222;26.460;2023-05-09T08:18:48;97412.63;;;7.02;91.21
47556;BME280;33291;46.222;26.460;2023-05-09T08:21:13;97409.28;;;7.00;90.93
47556;BME280;33291;46.222;26.460;2023-05-09T08:23:39;97408.19;;;7.04;91.73
47556;BME280;33291;46.222;26.460;2023-05-09T08:26:05;97405.59;;;7.04;92.84
47556;BME280;33291;46.222;26.460;2023-05-09T08:28:30;97414.66;;;7.11;93.06
47556;BME280;33291;46.222;26.460;2023-05-09T08:30:56;97412.59;;;7.16;93.66
47556;BME280;33291;46.222;26.460;2023-05-09T08:33:22;97423.63;;;7.20;95.32
47556;BME280;33291;46.222;26.460;2023-05-09T08:35:51;97410.88;;;7.17;97.04
47556;BME280;33291;46.222;26.460;2023-05-09T08:38:17;97415.09;;;7.18;97.16
47556;BME280;33291;46.222;26.460;2023-05-09T08:40:43;97392.63;;;7.04;96.70
47556;BME280;33291;46.222;26.460;2023-05-09T08:43:08;97412.31;;;7.21;98.84
47556;BME280;33291;46.222;26.460;2023-05-09T08:45:45;97423.53;;;7.21;99.06
47556;BME280;33291;46.222;26.460;2023-05-09T08:48:14;97414.28;;;7.17;99.72
47556;BME280;33291;46.222;26.460;2023-05-09T08:50:40;97426.41;;;7.17;100.00
47556;BME280;33291;46.222;26.460;2023-05-09T08:53:06;97426.31;;;7.18;100.00
47556;BME280;33291;46.222;26.460;2023-05-09T08:55:31;97420.19;;;7.19;100.00
47556;BME280;33291;46.222;26.460;2023-05-09T08:57:57;97414.09;;;7.20;100.00
47556;BME280;33291;46.222;26.460;2023-05-09T09:00:24;97415.09;;;7.18;100.00
47556;BME280;33291;46.222;26.460;2023-05-09T09:02:50;97419.06;;;7.23;100.00
47556;BME280;33291;46.222;26.460;2023-05-09T09:05:17;97413.69;;;7.26;100.00
47556;BME280;33291;46.222;26.460;2023-05-09T09:07:43;97424.50;;;7.33;100.00
47556;BME280;33291;46.222;26.460;2023-05-09T09:10:10;97414.22;;;7.32;100.00
47556;BME280;33291;46.222;26.460;2023-05-09T09:12:38;97418.22;;;7.37;100.00
47556;BME280;33291;46.222;26.460;2023-05-09T09:15:04;97414.59;;;7.40;100.00
47556;BME280;33291;46.222;26.460;2023-05-09T09:17:32;97416.09;;;7.44;100.00
47556;BME280;33291;46.222;26.460;2023-05-09T09:20:00;97415.53;;;7.39;97.03
47556;BME280;33291;46.222;26.460;2023-05-09T09:22:31;97408.47;;;7.41;96.81
47556;BME280;33291;46.222;26.460;2023-05-09T09:25:01;97420.31;;;7.45;96.81
47556;BME280;33291;46.222;26.460;2023-05-09T09:27:28;97418.47;;;7.47;96.75
47556;BME280;33291;46.222;26.460;2023-05-09T09:29:53;97397.88;;;7.31;92.06
47556;BME280;33291;46.222;26.460;2023-05-09T09:32:19;97363.22;;;7.05;92.70
47556;BME280;33291;46.222;26.460;2023-05-09T09:34:48;97429.78;;;7.46;93.68
47556;BME280;33291;46.222;26.460;2023-05-09T09:37:23;97427.56;;;7.40;90.55
47556;BME280;33291;46.222;26.460;2023-05-09T09:39:55;97403.53;;;7.23;90.57
47556;BME280;33291;46.222;26.460;2023-05-09T09:42:21;97429.69;;;7.33;89.56
47556;BME280;33291;46.222;26.460;2023-05-09T09:45:11;97427.84;;;7.35;88.50
47556;BME280;33291;46.222;26.460;2023-05-09T09:47:38;97414.44;;;7.28;90.36
47556;BME280;33291;46.222;26.460;2023-05-09T09:50:16;97418.50;;;7.33;90.77
47556;BME280;33291;46.222;26.460;2023-05-09T09:52:49;97419.03;;;7.38;90.30
47556;BME280;33291;46.222;26.460;2023-05-09T09:55:16;97427.94;;;7.34;86.84
47556;BME280;33291;46.222;26.460;2023-05-09T09:57:42;97415.91;;;7.33;86.98
47556;BME280;33291;46.222;26.460;2023-05-09T10:00:13;97416.63;;;7.35;85.21
47556;BME280;33291;46.222;26.460;2023-05-09T10:02:57;97412.09;;;7.38;88.75
47556;BME280;33291;46.222;26.460;2023-05-09T10:07:58;97413.31;;;7.47;87.32
47556;BME280;33291;46.222;26.460;2023-05-09T10:10:34;97410.50;;;7.50;85.88
47556;BME280;33291;46.222;26.460;2023-05-09T10:13:07;97405.53;;;7.47;83.26
47556;BME280;33291;46.222;26.460;2023-05-09T10:15:35;97399.06;;;7.40;83.24
47556;BME280;33291;46.222;26.460;2023-05-09T10:18:01;97396.78;;;7.48;83.96
47556;BME280;33291;46.222;26.460;2023-05-09T10:20:29;97402.25;;;7.58;87.17
47556;BME280;33291;46.222;26.460;2023-05-09T10:22:57;97368.56;;;7.43;87.76
47556;BME280;33291;46.222;26.460;2023-05-09T10:25:43;97405.88;;;7.68;86.97
47556;BME280;33291;46.222;26.460;2023-05-09T10:28:17;97384.00;;;7.59;86.31
47556;BME280;33291;46.222;26.460;2023-05-09T10:30:55;97401.78;;;7.78;86.36
47556;BME280;33291;46.222;26.460;2023-05-09T10:33:30;97398.88;;;7.83;87.15
47556;BME280;33291;46.222;26.460;2023-05-09T10:35:57;97396.75;;;7.90;86.76
47556;BME280;33291;46.222;26.460;2023-05-09T10:38:24;97395.50;;;7.95;86.20
47556;BME280;33291;46.222;26.460;2023-05-09T10:40:49;97394.47;;;7.98;85.98
47556;BME280;33291;46.222;26.460;2023-05-09T10:43:15;97387.69;;;7.95;83.16
47556;BME280;33291;46.222;26.460;2023-05-09T10:45:41;97393.44;;;8.00;82.93
47556;BME280;33291;46.222;26.460;2023-05-09T10:48:07;97389.06;;;8.01;80.79
47556;BME280;33291;46.222;26.460;2023-05-09T10:50:34;97393.44;;;8.00;81.49
47556;BME280;33291;46.222;26.460;2023-05-09T10:58:19;97384.50;;;8.05;83.55
47556;BME280;33291;46.222;26.460;2023-05-09T11:00:46;97380.16;;;8.05;81.42
47556;BME280;33291;46.222;26.460;2023-05-09T11:03:12;97387.09;;;8.05;81.52
47556;BME280;33291;46.222;26.460;2023-05-09T11:05:38;97385.47;;;8.04;81.84
47556;BME280;33291;46.222;26.460;2023-05-09T11:10:45;97379.41;;;8.03;84.18
47556;BME280;33291;46.222;26.460;2023-05-09T11:13:11;97374.13;;;8.05;83.39
47556;BME280;33291;46.222;26.460;2023-05-09T11:16:10;97385.56;;;8.02;80.57
47556;BME280;33291;46.222;26.460;2023-05-09T11:18:48;97375.38;;;7.99;81.10
47556;BME280;33291;46.222;26.460;2023-05-09T11:21:14;97378.38;;;8.06;81.78
47556;BME280;33291;46.222;26.460;2023-05-09T11:23:41;97373.09;;;8.07;83.51
47556;BME280;33291;46.222;26.460;2023-05-09T11:26:07;97386.06;;;8.07;84.75
47556;BME280;33291;46.222;26.460;2023-05-09T11:28:36;97388.78;;;8.06;86.42
47556;BME280;33291;46.222;26.460;2023-05-09T11:33:38;97387.31;;;8.01;88.25
47556;BME280;33291;46.222;26.460;2023-05-09T11:36:26;97395.94;;;8.02;88.99
47556;BME280;33291;46.222;26.460;2023-05-09T11:39:23;97387.59;;;7.97;89.78
47556;BME280;33291;46.222;26.460;2023-05-09T11:41:49;97380.97;;;7.93;90.67
47556;BME280;33291;46.222;26.460;2023-05-09T11:44:17;97385.09;;;7.95;91.59
47556;BME280;33291;46.222;26.460;2023-05-09T11:46:43;97387.81;;;7.94;91.87
47556;BME280;33291;46.222;26.460;2023-05-09T11:49:09;97397.97;;;7.97;92.45
47556;BME280;33291;46.222;26.460;2023-05-09T11:51:35;97383.56;;;7.93;92.71
47556;BME280;33291;46.222;26.460;2023-05-09T11:54:05;97391.25;;;7.94;93.03
47556;BME280;33291;46.222;26.460;2023-05-09T11:56:34;97381.91;;;7.92;93.72
47556;BME280;33291;46.222;26.460;2023-05-09T11:59:00;97386.97;;;7.93;93.62
47556;BME280;33291;46.222;26.460;2023-05-09T12:01:27;97371.41;;;7.80;93.58
47556;BME280;33291;46.222;26.460;2023-05-09T12:03:52;97378.88;;;7.85;94.62
47556;BME280;33291;46.222;26.460;2023-05-09T12:06:18;97370.25;;;7.85;94.81
47556;BME280;33291;46.222;26.460;2023-05-09T12:08:44;97370.91;;;7.88;95.16
47556;BME280;33291;46.222;26.460;2023-05-09T12:11:11;97373.41;;;7.90;95.64
47556;BME280;33291;46.222;26.460;2023-05-09T12:13:48;97374.72;;;7.95;95.84
47556;BME280;33291;46.222;26.460;2023-05-09T12:16:15;97363.13;;;7.88;95.77
47556;BME280;33291;46.222;26.460;2023-05-09T12:18:49;97372.78;;;7.99;95.11
47556;BME280;33291;46.222;26.460;2023-05-09T12:21:16;97367.81;;;7.96;94.73
47556;BME280;33291;46.222;26.460;2023-05-09T12:23:42;97339.22;;;7.83;94.72
47556;BME280;33291;46.222;26.460;2023-05-09T12:26:08;97363.53;;;7.95;94.51
47556;BME280;33291;46.222;26.460;2023-05-09T12:28:34;97371.63;;;8.03;93.96
47556;BME280;33291;46.222;26.460;2023-05-09T12:31:01;97364.16;;;7.98;93.35
47556;BME280;33291;46.222;26.460;2023-05-09T12:33:27;97363.94;;;8.01;92.74
47556;BME280;33291;46.222;26.460;2023-05-09T12:36:05;97349.00;;;7.92;91.93
47556;BME280;33291;46.222;26.460;2023-05-09T12:38:31;97364.81;;;8.02;91.88
47556;BME280;33291;46.222;26.460;2023-05-09T12:41:07;97369.13;;;8.01;91.40
47556;BME280;33291;46.222;26.460;2023-05-09T12:43:34;97358.97;;;7.98;91.81
47556;BME280;33291;46.222;26.460;2023-05-09T12:46:01;97362.50;;;7.97;92.06
47556;BME280;33291;46.222;26.460;2023-05-09T12:48:28;97365.41;;;7.93;92.18
47556;BME280;33291;46.222;26.460;2023-05-09T12:50:53;97361.16;;;7.92;91.39
47556;BME280;33291;46.222;26.460;2023-05-09T12:53:26;97350.66;;;7.80;89.36
47556;BME280;33291;46.222;26.460;2023-05-09T12:55:54;97357.84;;;7.90;89.81
47556;BME280;33291;46.222;26.460;2023-05-09T12:58:21;97355.44;;;7.87;87.74
47556;BME280;33291;46.222;26.460;2023-05-09T13:00:46;97345.69;;;7.90;85.58
47556;BME280;33291;46.222;26.460;2023-05-09T13:03:26;97342.38;;;7.88;84.32
47556;BME280;33291;46.222;26.460;2023-05-09T13:05:58;97347.34;;;7.91;83.82
47556;BME280;33291;46.222;26.460;2023-05-09T13:08:25;97341.31;;;7.91;83.84
47556;BME280;33291;46.222;26.460;2023-05-09T13:10:51;97349.19;;;7.89;80.94
47556;BME280;33291;46.222;26.460;2023-05-09T13:13:17;97336.31;;;7.88;81.02
47556;BME280;33291;46.222;26.460;2023-05-09T13:15:44;97344.75;;;7.91;80.35